Řízení letového provozu České republiky  
Aktualizace dat:  27.10.2020 01:20:26 UTC English version
   METEO Zobrazení stránky:  27.10.2020 01:21:14 UTC  
vysvětlivky
METAR EDDB 270050Z 19004KT 9999 FEW037 08/07 Q1006 NOSIG=
METAR EDDC 270050Z 20008KT CAVOK 09/06 Q1008=
METAR EDDE 270050Z 21008KT CAVOK 07/04 Q1007=
METAR EDDF 270050Z 21005KT 9999 SCT006 07/06 Q1008 NOSIG=
METAR EDDM 270050Z 20006KT 9999 -RA FEW013 SCT030 OVC045 04/03 Q1011 NOSIG=
METAR EDDN 270050Z 15005KT 9999 FEW007 06/05 Q1009=
METAR EDDP 270050Z 22008KT CAVOK 08/06 Q1007 NOSIG=
METAR EDDT 270050Z 20005KT CAVOK 08/07 Q1006=
METAR EDQM NIL
METAR EPBY 270100Z 21006KT 7000 NSC 10/09 Q1005=
METAR EPGD 270100Z 22004KT 180V240 7000 BKN008 11/10 Q1004=
METAR EPKK 270100Z VRB02KT 9999 BKN050 11/09 Q1008=
METAR EPKT 270100Z 18006KT 9999 OVC034 13/09 Q1008=
METAR EPLL 270100Z VRB02KT 9999 FEW028 OVC040 13/10 Q1007=
METAR EPPO 270100Z 25005KT 9999 BKN012 11/10 Q1006=
METAR EPRZ 270100Z 09004KT CAVOK 11/10 Q1010=
METAR EPWA 270100Z 16007KT 9999 SCT043 12/11 Q1008 NOSIG=
METAR EPWR 270100Z 29007KT 9999 BKN030 11/08 Q1008=
METAR LHBP 270100Z 10003KT CAVOK 10/09 Q1011 NOSIG=
METAR LHSM 270045Z AUTO VRB02KT CAVOK 10/09 Q1009=
SPECI LKBC 270118Z AUTO 25002KT 9999 BKN007 BKN029 OVC049 07/06 Q1009=
METAR LKCV 270100Z 26007KT 4000 -DZ BR SCT009 OVC014 09/08 Q1009 NOSIG RMK GRN GRN=
METAR LKKB 270100Z 25004KT 9999 -RA FEW035 OVC050 09/07 Q1009 RMK BLU=
METAR LKKU NIL
METAR LKKV 270100Z VRB02KT 9999 BKN015 06/04 Q1008 RMK REG QNH 1006=
METAR LKLN 270100Z AUTO 20004KT 9999 -RA SCT031 BKN051 OVC097 07/07 Q1009=
METAR LKMT 270100Z 24008KT 9999 BKN044 12/10 Q1008 NOSIG RMK REG QNH 1006=
METAR LKNA 270100Z 25004KT 9999 FEW014 OVC026 09/08 Q1008 RMK BLU=
METAR LKPD 270100Z 26010KT 8000 SCT008 OVC020 09/09 Q1009 RMK WHT=
METAR LKPJ 270100Z AUTO 20005KT 170V230 9999 OVC039 11/09 Q1008=
METAR LKPR 270100Z 24007KT 9999 -RA FEW033 SCT040 08/07 Q1008 NOSIG RMK REG QNH 1006=
METAR LKTB 270100Z 18002KT 8000 BKN033 11/10 Q1008 NOSIG RMK REG QNH 1006=
METAR LKVO NIL
METAR LOWI 270050Z AUTO VRB01KT 4200 -SN SCT004 BKN015 00/M00 Q1012=
METAR LOWL 270050Z AUTO 26011KT 9999 -RA FEW019 SCT034 BKN050 06/05 Q1011=
METAR LOWS 270050Z AUTO 02002KT 9999 -RA BKN007 05/04 Q1012=
METAR LOWW 270050Z 30003KT 9999 FEW017 BKN028 11/08 Q1009 NOSIG=
METAR LZIB 270100Z 02002KT 9999 FEW030 08/07 Q1009=
METAR LZKZ 270100Z 22006KT 6000 OVC011 13/12 Q1012=
METAR LZMC NIL
METAR LZPP 270100Z AUTO VRB01KT 6000 NCD 09/08 Q1009=
METAR LZSL 270100Z 31001KT 9999 FEW021 SCT047 BKN065 12/11 Q1011=
METAR LZTT 270100Z 22008KT 9999 BKN036 OVC050 13/07 Q1010=
METAR LZZI 270100Z 21003KT 170V240 9999 BKN060 15/09 Q1009=